Terminal Aerodrome Forecast
Issued by NWS

Home | Current Version | Previous Version | Text Only | Print | Product List | Glossary On
Versions: 1 2 3 4 5 6 7 8 9 10 11 12 13 14 15 16 17
000
FTUS44 KBMX 241137
TAFTCL
TAF
KTCL 241137Z 2412/2512 12002KT P6SM SKC
     FM241800 15005KT P6SM SCT040 PROB30 2421/2423 6SM -TSRA
      BKN040CB
     FM250100 13003KT P6SM SCT250=

USA.gov is the U.S. government's official web portal to all federal, state and local government web resources and services.